Espera Feliz, Brazil
Current Conditions -  °F | °C
As of 8:00 PM on Tuesday 27 Jan 2015 (Local Time) from SBCP Reporting Station
Broken Clouds Broken Clouds  
Wind Chill: 82°   Ceiling: 10000
Heat Index: 89°   Visibility: 6mi
Dew Point: 75°   Wind: 12mph
Humidity: 79%   Direction: 70°ENE
Pressure: 29.91"   Gusts: NA
Location:  20.65°S, 41.91°W
Report Text: SBCP 272200Z 07010KT 9999 FEW020 BKN100 28/24 Q1013
Loading
Personal Weather Stations






























Interactive Weather Map New forecast layout! Learn more

10-Day Weather Forecast

Advertisements
Track Severe Weather on mobile